Time;durP1;ratioP1;P1;durP2;ratioP2;P2;SDS_P1;SDS_P2;PMS_P1;PMS_P2;Temp;Humidity;BMP_temperature;BMP_pressure;BME280_temperature;BME280_humidity;BME280_pressure;Samples;Min_cycle;Max_cycle;Signal;HPM_P1;HPM_P2
2021/09/09 00:00:06;;;;;;;22.25;10.70;;;18.40;99.90;;;18.96;74.17;101149.44;4971578;28;20352;-69
2021/09/09 00:02:39;;;;;;;21.65;11.63;;;18.30;99.90;;;18.94;74.41;101148.66;4966727;28;20305;-72
2021/09/09 00:05:09;;;;;;;21.83;10.88;;;18.30;99.90;;;18.94;74.00;101148.66;4971475;28;20677;-74
2021/09/09 00:07:36;;;;;;;20.88;10.65;;;18.30;99.90;;;18.91;74.37;101138.25;4972903;28;20195;-71
2021/09/09 00:10:05;;;;;;;20.23;10.43;;;18.30;99.90;;;18.88;74.37;101142.91;4969821;28;20279;-72
2021/09/09 00:12:32;;;;;;;21.42;11.65;;;18.20;99.90;;;18.84;74.51;101146.75;4972349;28;20220;-73
2021/09/09 00:15:03;;;;;;;21.65;11.57;;;18.20;99.90;;;18.81;74.41;101137.16;4969420;28;20684;-71
2021/09/09 00:17:29;;;;;;;22.13;10.85;;;18.20;99.90;;;18.79;74.53;101141.72;4967696;28;20206;-73
2021/09/09 00:19:57;;;;;;;21.13;11.50;;;18.10;99.90;;;18.78;74.40;101137.38;4969714;28;20234;-70
2021/09/09 00:22:25;;;;;;;21.98;11.25;;;18.10;99.90;;;18.75;74.67;101126.97;4964388;28;20226;-73
2021/09/09 00:24:51;;;;;;;22.70;11.57;;;18.10;99.90;;;18.73;74.59;101128.84;4969689;28;20221;-73
2021/09/09 00:27:19;;;;;;;22.67;11.55;;;18.10;99.90;;;18.73;74.43;101128.84;4970547;28;20192;-72
2021/09/09 00:29:47;;;;;;;24.35;11.40;;;18.10;99.90;;;18.72;74.75;101121.88;4963669;28;20188;-71
2021/09/09 00:32:16;;;;;;;22.15;11.38;;;18.00;99.90;;;18.71;74.56;101122.78;4964215;28;20207;-72
2021/09/09 00:34:44;;;;;;;22.25;11.55;;;18.00;99.90;;;18.68;74.42;101131.81;4985707;28;20204;-71
2021/09/09 00:37:12;;;;;;;20.27;10.82;;;18.00;99.90;;;18.64;74.46;101132.09;4966050;28;20193;-73
2021/09/09 00:39:39;;;;;;;22.17;10.80;;;18.00;99.90;;;18.59;74.86;101127.09;4961876;28;20195;-72
2021/09/09 00:42:06;;;;;;;21.58;11.13;;;17.90;99.90;;;18.56;74.29;101127.28;4960762;28;20279;-71
2021/09/09 00:44:32;;;;;;;22.27;11.05;;;17.90;99.90;;;18.52;74.37;101135.53;4986038;28;20207;-72
2021/09/09 00:47:02;;;;;;;21.02;11.55;;;17.90;99.90;;;18.49;74.59;101128.63;4975788;28;20544;-72
2021/09/09 00:49:32;;;;;;;20.63;11.18;;;17.90;99.90;;;18.47;74.62;101132.34;4961748;28;20258;-72
2021/09/09 00:51:59;;;;;;;20.63;10.70;;;17.90;99.90;;;18.48;74.83;101126.06;4968270;28;20223;-72
2021/09/09 00:54:26;;;;;;;20.35;10.93;;;17.90;99.90;;;18.45;75.09;101128.91;4972032;28;20236;-73
2021/09/09 00:56:54;;;;;;;19.77;11.07;;;17.90;99.90;;;18.42;75.06;101124.66;4975357;28;20271;-72
2021/09/09 00:59:21;;;;;;;21.20;10.75;;;17.80;99.90;;;18.40;74.76;101123.06;4986330;28;20203;-71
2021/09/09 01:01:48;;;;;;;21.73;10.70;;;17.80;99.90;;;18.38;74.89;101116.97;4966458;28;20219;-72
2021/09/09 01:04:16;;;;;;;22.35;11.25;;;17.80;99.90;;;18.38;74.87;101114.31;4967291;28;20573;-72
2021/09/09 01:06:45;;;;;;;22.17;10.75;;;17.70;99.90;;;18.36;74.90;101116.19;4973769;28;20238;-72
2021/09/09 01:09:12;;;;;;;23.02;11.88;;;17.80;99.90;;;18.34;74.74;101112.78;4971757;28;20626;-71
2021/09/09 01:11:39;;;;;;;22.63;10.90;;;17.70;99.90;;;18.33;74.79;101113.75;4969690;28;20716;-72
2021/09/09 01:14:10;;;;;;;22.40;11.40;;;17.70;99.90;;;18.29;74.41;101117.53;4973195;28;20668;-73
2021/09/09 01:16:40;;;;;;;21.17;10.35;;;17.70;99.90;;;18.28;75.05;101115.84;4973340;28;20614;-72
2021/09/09 01:19:09;;;;;;;21.70;10.55;;;17.70;99.90;;;18.29;74.49;101112.22;4973053;28;20242;-71
2021/09/09 01:21:36;;;;;;;18.90;10.70;;;17.60;99.90;;;18.30;74.55;101120.09;4964687;28;20224;-72
2021/09/09 01:24:09;;;;;;;20.50;10.07;;;17.60;99.90;;;18.28;74.42;101108.75;4971852;28;20195;-71
2021/09/09 01:26:50;;;;;;;21.40;10.50;;;17.70;99.90;;;18.28;74.25;101115.84;4985475;28;20220;-72
2021/09/09 01:29:18;;;;;;;23.27;10.70;;;17.60;99.90;;;18.25;74.26;101106.28;4968161;28;20187;-71
2021/09/09 01:31:45;;;;;;;19.20;10.10;;;17.60;99.90;;;18.25;74.34;101111.56;4969295;28;20219;-72
2021/09/09 01:34:12;;;;;;;21.17;10.25;;;17.60;99.90;;;18.26;74.28;101105.34;4969383;28;20195;-72
2021/09/09 01:36:39;;;;;;;19.15;10.05;;;17.60;99.90;;;18.24;74.03;101106.38;4969119;28;20665;-72
2021/09/09 01:39:07;;;;;;;19.95;10.32;;;17.60;99.90;;;18.22;73.75;101100.34;4966904;28;20199;-70
2021/09/09 01:41:34;;;;;;;19.23;10.00;;;17.60;99.90;;;18.22;73.49;101106.47;4966798;28;20219;-72
2021/09/09 01:44:01;;;;;;;20.08;10.15;;;17.60;99.90;;;18.23;73.48;101102.03;4972182;28;20242;-72
2021/09/09 01:46:28;;;;;;;19.65;9.93;;;17.60;99.90;;;18.24;73.12;101109.03;4973366;28;20219;-72
2021/09/09 01:48:56;;;;;;;18.92;9.75;;;17.60;99.90;;;18.24;72.98;101101.06;4972657;28;20195;-72
2021/09/09 01:51:24;;;;;;;20.20;9.73;;;17.50;99.90;;;18.22;73.29;101105.63;4973358;28;20619;-72
2021/09/09 01:53:51;;;;;;;17.95;9.13;;;17.50;99.90;;;18.21;73.00;101109.22;4972279;28;20195;-71
2021/09/09 01:56:19;;;;;;;17.55;9.57;;;17.50;99.90;;;18.18;72.71;101104.13;4973208;28;20599;-71
2021/09/09 01:58:46;;;;;;;17.88;9.32;;;17.50;99.90;;;18.18;72.91;101109.41;4964532;28;20207;-72
2021/09/09 02:01:13;;;;;;;17.38;9.68;;;17.50;99.90;;;18.16;72.72;101106.00;4983868;28;20208;-71
2021/09/09 02:03:40;;;;;;;16.33;9.00;;;17.50;99.90;;;18.13;72.87;101107.06;4983874;28;20200;-71
2021/09/09 02:06:06;;;;;;;21.65;9.40;;;17.50;99.90;;;18.11;72.63;101108.09;4969523;28;20223;-70
2021/09/09 02:08:33;;;;;;;23.05;10.48;;;17.50;99.90;;;18.11;73.01;101100.13;4971048;28;20223;-71
2021/09/09 02:11:00;;;;;;;22.88;11.25;;;17.50;99.90;;;18.12;72.72;101107.16;4972429;28;20270;-72
2021/09/09 02:13:28;;;;;;;23.17;11.02;;;17.50;99.90;;;18.12;72.66;101104.50;4986614;28;20222;-74
2021/09/09 02:15:55;;;;;;;19.45;9.90;;;17.50;99.90;;;18.11;72.76;101097.50;4975043;28;20192;-71
2021/09/09 02:18:22;;;;;;;21.10;10.57;;;17.40;99.90;;;18.08;72.50;101103.00;4969482;28;20265;-72
2021/09/09 02:20:49;;;;;;;20.60;9.90;;;17.40;99.90;;;18.08;72.53;101092.38;4973097;28;20227;-72
2021/09/09 02:23:16;;;;;;;19.50;10.30;;;17.40;99.90;;;18.05;72.64;101098.72;4971659;28;20210;-72
2021/09/09 02:25:42;;;;;;;16.65;8.82;;;17.40;99.90;;;18.04;72.37;101096.16;4973392;28;20219;-72
2021/09/09 02:28:09;;;;;;;21.88;10.20;;;17.40;99.90;;;18.02;72.36;101092.78;4972999;28;20202;-71
2021/09/09 02:30:37;;;;;;;17.02;9.65;;;17.40;99.90;;;17.98;72.30;101089.47;4976620;28;20199;-72
2021/09/09 02:33:04;;;;;;;20.73;9.85;;;17.40;99.90;;;17.97;72.36;101084.25;4979063;28;20199;-72
2021/09/09 02:35:31;;;;;;;18.83;9.38;;;17.30;99.90;;;17.95;72.66;101096.75;4977079;28;20195;-73
2021/09/09 02:37:58;;;;;;;19.10;9.65;;;17.30;99.90;;;17.93;72.65;101096.00;4967748;28;20203;-73
2021/09/09 02:40:25;;;;;;;22.48;9.63;;;17.30;99.90;;;17.91;72.40;101090.78;4970928;28;20200;-73
2021/09/09 02:42:51;;;;;;;17.90;9.32;;;17.30;99.90;;;17.89;72.56;101079.44;4971864;28;20196;-73
2021/09/09 02:45:18;;;;;;;19.83;9.07;;;17.20;99.90;;;17.90;72.41;101080.28;4972387;28;20192;-72
2021/09/09 02:47:47;;;;;;;17.75;9.32;;;17.20;99.90;;;17.87;72.57;101078.66;4969208;28;20184;-72
2021/09/09 02:50:13;;;;;;;19.20;9.95;;;17.20;99.90;;;17.84;72.50;101075.34;4970803;28;20612;-71
2021/09/09 02:52:41;;;;;;;20.38;9.50;;;17.20;99.90;;;17.81;72.70;101083.50;4965618;28;20624;-73
2021/09/09 02:55:09;;;;;;;20.20;10.00;;;17.20;99.90;;;17.78;73.00;101089.00;4968983;28;20203;-72
2021/09/09 02:57:36;;;;;;;18.90;9.95;;;17.10;99.90;;;17.73;73.17;101086.63;4965925;28;20215;-73
2021/09/09 03:00:03;;;;;;;19.15;10.05;;;17.10;99.90;;;17.69;73.12;101087.75;4967292;28;20187;-71
2021/09/09 03:02:31;;;;;;;22.60;10.55;;;17.10;99.90;;;17.68;73.46;101087.84;4972738;28;20222;-72
2021/09/09 03:04:59;;;;;;;19.70;9.80;;;17.10;99.90;;;17.66;73.31;101081.78;4968140;28;20250;-71
2021/09/09 03:07:26;;;;;;;24.15;9.88;;;17.00;99.90;;;17.64;73.51;101075.72;4959797;28;20204;-72
2021/09/09 03:09:52;;;;;;;20.45;10.27;;;17.00;99.90;;;17.63;73.62;101076.69;4973571;28;20204;-72
2021/09/09 03:12:19;;;;;;;18.45;9.60;;;17.00;99.90;;;17.63;73.65;101074.03;4970515;28;20215;-72
2021/09/09 03:14:46;;;;;;;19.75;10.27;;;17.00;99.90;;;17.61;73.64;101071.47;4970201;28;20211;-72
2021/09/09 03:17:13;;;;;;;18.13;9.35;;;17.00;99.90;;;17.61;73.20;101070.63;4987405;28;20692;-72
2021/09/09 03:19:41;;;;;;;19.90;9.63;;;16.90;99.90;;;17.61;73.92;101073.28;4973312;28;20202;-72
2021/09/09 03:22:09;;;;;;;19.88;9.82;;;17.00;99.90;;;17.60;73.53;101068.94;4973568;28;20274;-72
2021/09/09 03:24:36;;;;;;;20.52;9.93;;;16.90;99.90;;;17.57;73.60;101069.09;4965899;28;20226;-72
2021/09/09 03:27:03;;;;;;;19.63;9.52;;;16.90;99.90;;;17.53;73.37;101061.34;4988194;28;20204;-72
2021/09/09 03:29:30;;;;;;;18.80;9.85;;;16.90;99.90;;;17.52;73.57;101066.72;4971978;28;20656;-72
2021/09/09 03:31:57;;;;;;;24.75;10.40;;;16.90;99.90;;;17.50;73.46;101064.19;4972430;28;20224;-72
2021/09/09 03:34:23;;;;;;;19.00;9.93;;;16.90;99.90;;;17.51;73.54;101057.09;4970812;28;20196;-71
2021/09/09 03:36:50;;;;;;;18.25;9.95;;;16.90;99.90;;;17.49;73.52;101054.56;4973465;28;20582;-72
2021/09/09 03:39:18;;;;;;;18.63;9.75;;;16.80;99.90;;;17.48;73.57;101059.94;4965662;28;20200;-71
2021/09/09 03:41:45;;;;;;;18.20;10.25;;;16.80;99.90;;;17.47;73.32;101056.44;4967232;28;20218;-72
2021/09/09 03:44:12;;;;;;;20.17;9.98;;;16.80;99.90;;;17.44;73.45;101047.78;4972448;28;20578;-70
2021/09/09 03:46:39;;;;;;;17.67;9.68;;;16.80;99.90;;;17.42;73.56;101047.03;4972421;28;20234;-72
2021/09/09 03:49:06;;;;;;;20.88;10.52;;;16.80;99.90;;;17.41;73.42;101043.53;4967304;28;20669;-70
2021/09/09 03:51:33;;;;;;;20.02;9.90;;;16.70;99.90;;;17.38;73.60;101049.00;4964010;28;20239;-70
2021/09/09 03:53:59;;;;;;;19.05;10.00;;;16.70;99.90;;;17.37;73.51;101047.31;4977915;28;20652;-72
2021/09/09 03:56:27;;;;;;;20.98;9.38;;;16.70;99.90;;;17.34;73.72;101046.66;4976581;28;20916;-71
2021/09/09 03:58:54;;;;;;;18.20;9.80;;;16.70;99.90;;;17.31;73.89;101046.84;4969844;28;20191;-71
2021/09/09 04:01:21;;;;;;;20.63;10.10;;;16.70;99.90;;;17.29;73.76;101049.56;4971466;28;20211;-72
2021/09/09 04:03:48;;;;;;;17.55;9.90;;;16.70;99.90;;;17.28;73.82;101049.66;4969085;28;20206;-73
2021/09/09 04:06:15;;;;;;;21.05;9.40;;;16.60;99.90;;;17.25;74.10;101047.19;4982625;28;20222;-73
2021/09/09 04:08:41;;;;;;;19.00;10.05;;;16.60;99.90;;;17.22;73.94;101042.09;4979610;28;20195;-72
2021/09/09 04:11:08;;;;;;;19.90;10.20;;;16.60;99.90;;;17.20;73.99;101043.97;4971050;28;20226;-72
2021/09/09 04:13:37;;;;;;;19.23;10.02;;;16.60;99.90;;;17.19;73.85;101042.28;4967883;28;20927;-71
2021/09/09 04:16:04;;;;;;;17.75;9.45;;;16.60;99.90;;;17.18;74.08;101044.06;4968120;28;20676;-71
2021/09/09 04:18:31;;;;;;;19.40;9.68;;;16.50;99.90;;;17.17;73.78;101033.56;4967685;28;20207;-72
2021/09/09 04:20:58;;;;;;;17.25;9.63;;;16.50;99.90;;;17.14;73.91;101034.63;4968766;28;20223;-72
2021/09/09 04:23:25;;;;;;;19.25;9.57;;;16.50;99.90;;;17.16;73.81;101037.16;4972199;28;20671;-73
2021/09/09 04:25:51;;;;;;;18.88;9.23;;;16.50;99.90;;;17.18;73.94;101041.41;4983001;28;20195;-71
2021/09/09 04:28:18;;;;;;;18.75;10.02;;;16.50;99.90;;;17.17;73.73;101033.56;4969291;28;20199;-72
2021/09/09 04:30:48;;;;;;;18.50;9.40;;;16.50;99.90;;;17.14;73.53;101033.75;4971647;28;20219;-72
2021/09/09 04:33:15;;;;;;;20.90;9.38;;;16.50;99.90;;;17.11;73.82;101034.78;4968459;28;20597;-72
2021/09/09 04:35:42;;;;;;;19.00;10.25;;;16.50;99.90;;;17.11;73.84;101028.66;4968808;28;20195;-72
2021/09/09 04:38:08;;;;;;;19.13;9.43;;;16.50;99.90;;;17.11;74.11;101026.84;4969375;28;20258;-73
2021/09/09 04:40:35;;;;;;;20.00;9.77;;;16.50;99.90;;;17.10;74.18;101025.16;4963746;28;20240;-72
2021/09/09 04:43:02;;;;;;;18.27;10.02;;;16.50;99.90;;;17.10;74.02;101027.78;4990097;28;20196;-73
2021/09/09 04:45:29;;;;;;;21.15;10.20;;;16.50;99.90;;;17.09;73.94;101018.16;4970814;28;20221;-72
2021/09/09 04:47:57;;;;;;;17.38;9.85;;;16.50;99.90;;;17.07;73.85;101016.53;4967676;28;20207;-72
2021/09/09 04:50:23;;;;;;;18.38;10.45;;;16.50;99.90;;;17.05;74.06;101019.28;4968053;28;20284;-72
2021/09/09 04:52:50;;;;;;;19.83;10.23;;;16.40;99.90;;;17.06;73.96;101009.56;4970589;28;20195;-71
2021/09/09 04:55:17;;;;;;;20.15;9.82;;;16.40;99.90;;;17.08;73.85;101007.69;4970463;28;20264;-72
2021/09/09 04:57:44;;;;;;;17.50;9.63;;;16.40;99.90;;;17.08;73.89;101008.50;4970229;28;20203;-73
2021/09/09 05:00:11;;;;;;;19.23;9.23;;;16.50;99.90;;;17.08;73.58;101008.50;4962139;28;20684;-73
2021/09/09 05:02:38;;;;;;;21.90;9.80;;;16.50;99.90;;;17.09;73.66;101004.94;4970066;28;20306;-70
2021/09/09 05:05:08;;;;;;;20.10;10.02;;;16.50;99.90;;;17.10;73.49;101006.63;4964707;28;20597;-71
2021/09/09 05:07:35;;;;;;;21.10;9.90;;;16.50;99.90;;;17.10;73.49;101008.41;4964694;28;20219;-71
2021/09/09 05:10:02;;;;;;;20.02;9.57;;;16.50;99.90;;;17.09;73.21;101004.94;4966979;28;20607;-71
2021/09/09 05:12:29;;;;;;;19.63;9.65;;;16.50;99.90;;;17.08;73.35;101010.31;4972061;28;20700;-72
2021/09/09 05:14:56;;;;;;;19.02;9.02;;;16.50;99.90;;;17.07;73.57;101004.19;4971678;28;20251;-71
2021/09/09 05:17:22;;;;;;;22.40;9.82;;;16.50;99.90;;;17.07;73.43;101001.53;4972242;28;20211;-72
2021/09/09 05:19:49;;;;;;;19.00;9.70;;;16.50;99.90;;;17.07;73.47;101001.53;4965794;28;20215;-71
2021/09/09 05:22:17;;;;;;;18.42;9.57;;;16.50;99.90;;;17.09;73.25;100994.38;4969292;28;20219;-70
2021/09/09 05:24:44;;;;;;;20.27;9.45;;;16.50;99.90;;;17.10;73.30;100996.06;4972104;28;20211;-72
2021/09/09 05:27:11;;;;;;;19.65;9.18;;;16.50;99.90;;;17.13;73.08;100990.56;4974070;28;20210;-71
2021/09/09 05:29:37;;;;;;;18.67;9.07;;;16.50;99.90;;;17.13;73.05;100990.56;4970214;28;20195;-72
2021/09/09 05:32:06;;;;;;;19.10;9.27;;;16.50;99.90;;;17.13;72.89;100989.75;4970339;28;20825;-70
2021/09/09 05:34:33;;;;;;;19.00;8.85;;;16.50;99.90;;;17.11;72.64;100987.16;4986104;28;20199;-71
2021/09/09 05:36:59;;;;;;;17.10;9.18;;;16.50;99.90;;;17.12;73.08;100994.16;4988818;28;20203;-71
2021/09/09 05:39:28;;;;;;;22.90;9.07;;;16.50;99.90;;;17.14;72.86;100984.34;4973481;28;20207;-69
2021/09/09 05:41:54;;;;;;;18.90;9.38;;;16.50;99.90;;;17.17;72.72;100996.53;4974232;28;20215;-70
2021/09/09 05:44:21;;;;;;;20.60;10.18;;;16.50;99.90;;;17.21;72.55;100982.19;4975048;28;20691;-71
2021/09/09 05:46:48;;;;;;;20.55;9.77;;;16.60;99.90;;;17.22;72.56;100984.75;4975023;28;20203;-73
2021/09/09 05:49:15;;;;;;;18.17;8.68;;;16.60;99.90;;;17.26;72.38;100988.88;4973758;28;20557;-72
2021/09/09 05:51:42;;;;;;;19.52;9.07;;;16.60;99.90;;;17.26;72.13;100980.94;4974594;28;20215;-75
2021/09/09 05:54:09;;;;;;;17.98;8.35;;;16.60;99.90;;;17.29;71.73;100979.94;4975603;28;20242;-73
2021/09/09 05:56:37;;;;;;;19.33;8.70;;;16.60;99.90;;;17.28;71.53;100980.88;4996440;28;20210;-72
2021/09/09 05:59:05;;;;;;;19.75;8.65;;;16.60;99.90;;;17.29;71.67;100975.50;4977291;28;20207;-73
2021/09/09 06:01:32;;;;;;;17.08;8.25;;;16.60;99.90;;;17.29;71.59;100978.13;4979648;28;20211;-71
2021/09/09 06:04:00;;;;;;;20.13;9.18;;;16.60;99.90;;;17.30;71.18;100995.69;4975662;28;20203;-71
2021/09/09 06:06:27;;;;;;;17.98;8.70;;;16.60;99.90;;;17.31;71.50;100973.56;4974537;28;20184;-71
2021/09/09 06:08:55;;;;;;;18.65;8.55;;;16.70;99.90;;;17.34;71.30;100989.28;4972047;28;20258;-71
2021/09/09 06:11:22;;;;;;;19.98;9.07;;;16.60;99.90;;;17.37;71.43;100988.25;4989076;28;20215;-71
2021/09/09 06:13:50;;;;;;;17.38;8.80;;;16.70;99.90;;;17.39;71.07;100986.34;4985224;28;20196;-71
2021/09/09 06:16:17;;;;;;;17.55;8.57;;;16.70;99.90;;;17.39;70.89;100979.28;4974452;28;20196;-71
2021/09/09 06:18:44;;;;;;;18.40;9.10;;;16.70;99.90;;;17.41;70.92;100990.59;4974702;28;20195;-71
2021/09/09 06:21:11;;;;;;;17.35;8.40;;;16.70;99.90;;;17.43;70.48;100983.41;4975010;28;20223;-71
2021/09/09 06:23:37;;;;;;;22.08;8.65;;;16.80;99.90;;;17.47;70.44;100984.13;4970337;28;20196;-71
2021/09/09 06:26:04;;;;;;;18.35;8.38;;;16.80;99.90;;;17.47;70.67;100979.69;4955644;28;20259;-70
2021/09/09 06:28:31;;;;;;;15.77;8.63;;;16.80;99.90;;;17.51;70.33;100975.88;4972732;28;20266;-71
2021/09/09 06:30:59;;;;;;;17.77;9.00;;;16.80;99.90;;;17.53;70.41;100979.28;4974254;28;20238;-70
2021/09/09 06:33:26;;;;;;;18.88;9.00;;;16.90;99.90;;;17.57;70.61;100979.09;4973397;28;20675;-71
2021/09/09 06:35:52;;;;;;;19.00;8.70;;;16.90;99.90;;;17.60;70.38;100984.22;4966776;28;20200;-71
2021/09/09 06:38:19;;;;;;;20.95;8.88;;;16.90;99.90;;;17.62;70.00;100985.81;4970270;28;20203;-71
2021/09/09 06:40:46;;;;;;;19.35;9.13;;;17.00;99.90;;;17.65;69.80;100980.31;4969566;28;20215;-71
2021/09/09 06:43:13;;;;;;;20.17;8.48;;;17.00;99.90;;;17.70;70.15;100983.53;4974195;28;20567;-72
2021/09/09 06:45:39;;;;;;;19.05;8.27;;;17.10;99.90;;;17.74;70.00;100984.19;4973248;28;20203;-70
2021/09/09 06:48:08;;;;;;;16.55;8.20;;;17.10;99.90;;;17.79;69.58;100979.47;4973578;28;20214;-71
2021/09/09 06:50:35;;;;;;;17.20;8.25;;;17.20;99.90;;;17.87;69.48;100985.13;4965464;28;20203;-71
2021/09/09 06:53:02;;;;;;;18.63;8.02;;;17.20;99.90;;;17.94;69.70;100987.28;4974199;28;20198;-71
2021/09/09 06:55:29;;;;;;;19.52;8.68;;;17.40;99.90;;;17.99;69.14;100987.84;4973382;28;20215;-71
2021/09/09 06:57:57;;;;;;;16.00;7.40;;;17.40;99.90;;;18.04;68.99;100984.91;4972100;28;20195;-71
2021/09/09 07:00:24;;;;;;;16.85;7.78;;;17.50;99.90;;;18.10;68.68;100976.56;4971692;28;20274;-71
2021/09/09 07:02:50;;;;;;;19.40;8.18;;;17.50;99.90;;;18.16;68.31;100978.81;4968571;28;20214;-71
2021/09/09 07:05:19;;;;;;;18.08;8.05;;;17.60;99.90;;;18.20;68.17;100982.97;4973266;28;20198;-71
2021/09/09 07:07:45;;;;;;;18.73;8.20;;;17.60;99.90;;;18.25;68.04;100979.06;4973801;28;20204;-72
2021/09/09 07:10:12;;;;;;;14.85;7.07;;;17.70;99.90;;;18.31;68.11;100983.13;4973877;28;20676;-71
2021/09/09 07:12:39;;;;;;;17.92;7.72;;;17.80;99.90;;;18.36;68.01;100970.44;4972717;28;20226;-71
2021/09/09 07:15:07;;;;;;;16.77;7.80;;;17.80;99.90;;;18.42;67.64;100967.41;4974084;28;20199;-70
2021/09/09 07:17:33;;;;;;;15.52;7.22;;;17.90;99.90;;;18.46;67.71;100971.56;4973754;28;20207;-71
2021/09/09 07:20:00;;;;;;;19.38;7.95;;;17.90;99.90;;;18.51;67.41;100972.97;4989769;28;20192;-70
2021/09/09 07:22:28;;;;;;;15.45;6.97;;;18.00;99.90;;;18.57;67.37;100969.88;4982150;28;20219;-71
2021/09/09 07:24:55;;;;;;;15.52;6.60;;;18.10;99.90;;;18.64;66.72;100972.97;4990163;28;20242;-70
2021/09/09 07:27:22;;;;;;;18.50;7.00;;;18.10;99.90;;;18.69;66.70;100968.22;4971548;28;20263;-67
2021/09/09 07:29:49;;;;;;;15.00;6.78;;;18.20;99.90;;;18.74;66.23;100958.16;4961421;28;20211;-72
2021/09/09 07:32:15;;;;;;;14.50;7.00;;;18.30;99.90;;;18.79;65.72;100965.81;4973970;28;20266;-71
2021/09/09 07:34:42;;;;;;;16.70;6.55;;;18.30;99.90;;;18.84;65.44;100963.72;4973678;28;20195;-70
2021/09/09 07:37:09;;;;;;;14.50;6.43;;;18.40;99.90;;;18.89;65.14;100959.75;4970411;28;20200;-70
2021/09/09 07:39:37;;;;;;;13.27;6.60;;;18.50;99.90;;;18.94;64.49;100951.53;4959377;28;20208;-70
2021/09/09 07:42:04;;;;;;;15.93;6.95;;;18.50;99.90;;;19.00;64.47;100962.56;4972707;28;20227;-70
2021/09/09 07:44:31;;;;;;;14.35;6.47;;;18.50;99.90;;;19.06;64.59;100958.63;4989762;28;20198;-70
2021/09/09 07:46:57;;;;;;;14.27;6.28;;;18.60;99.90;;;19.13;64.43;100958.09;4969938;28;20679;-69
2021/09/09 07:49:24;;;;;;;13.43;6.05;;;18.70;99.90;;;19.20;63.95;100970.00;4974741;28;20198;-69
2021/09/09 07:51:51;;;;;;;16.40;6.57;;;18.80;99.90;;;19.24;63.78;100960.84;4973397;28;20269;-70
2021/09/09 07:54:18;;;;;;;14.27;6.47;;;18.80;99.90;;;19.30;63.56;100960.47;4975606;28;20677;-70
2021/09/09 07:56:47;;;;;;;15.50;6.22;;;18.90;99.90;;;19.34;63.19;100967.25;4973653;28;20662;-71
2021/09/09 07:59:14;;;;;;;13.43;5.78;;;19.00;99.90;;;19.38;63.13;100966.09;4974058;28;20203;-70
2021/09/09 08:01:44;;;;;;;13.98;5.63;;;19.00;99.90;;;19.44;62.94;100968.31;4972090;28;20274;-72
2021/09/09 08:04:15;;;;;;;12.18;5.43;;;19.10;99.90;;;19.48;62.86;100959.19;4972122;28;20202;-70
2021/09/09 08:06:42;;;;;;;13.82;5.53;;;19.10;99.90;;;19.53;63.09;100970.31;4963980;28;20254;-70
2021/09/09 08:09:09;;;;;;;11.73;5.57;;;19.20;99.90;;;19.57;62.44;100969.16;4971163;28;20768;-71
2021/09/09 08:11:37;;;;;;;14.20;5.70;;;19.20;99.90;;;19.61;62.34;100970.63;4972865;28;20230;-72
2021/09/09 08:14:05;;;;;;;12.45;5.47;;;19.30;99.90;;;19.66;62.19;100967.63;4974114;28;20570;-73
2021/09/09 08:16:33;;;;;;;13.07;5.90;;;19.40;99.90;;;19.70;62.26;100967.34;4972721;28;20192;-72
2021/09/09 08:19:00;;;;;;;13.40;5.60;;;19.40;99.90;;;19.75;62.30;100967.84;4972490;28;20199;-71
2021/09/09 08:21:27;;;;;;;15.48;5.82;;;19.40;99.90;;;19.80;62.32;100960.41;4986281;28;20223;-71
2021/09/09 08:23:53;;;;;;;12.20;5.50;;;19.50;99.90;;;19.86;62.01;100964.41;4966956;28;20652;-72
2021/09/09 08:26:20;;;;;;;12.15;5.63;;;19.60;99.90;;;19.89;61.49;100959.72;4972907;28;20200;-72
2021/09/09 08:28:47;;;;;;;12.75;5.88;;;19.60;99.90;;;19.94;61.06;100970.88;4973591;28;20215;-70
2021/09/09 08:31:16;;;;;;;13.15;5.88;;;19.70;99.90;;;19.98;61.35;100964.38;4973779;28;20226;-71
2021/09/09 08:33:43;;;;;;;16.45;5.60;;;19.70;99.90;;;20.04;61.33;100956.94;4971651;28;20203;-71
2021/09/09 08:36:15;;;;;;;16.55;5.80;;;19.80;99.90;;;20.11;61.23;100963.50;4973281;28;20285;-69
2021/09/09 08:38:42;;;;;;;12.85;5.40;;;19.80;99.90;;;20.16;60.90;100961.38;4975633;28;20249;-72
2021/09/09 08:41:08;;;;;;;14.38;5.95;;;19.90;99.90;;;20.21;60.66;100972.53;4987273;28;20708;-71
2021/09/09 08:43:35;;;;;;;15.45;5.25;;;20.00;99.90;;;20.27;60.43;100969.41;4973808;28;20191;-73
2021/09/09 08:46:04;;;;;;;15.23;5.72;;;20.00;99.90;;;20.31;60.55;100974.38;4982463;28;20214;-73
2021/09/09 08:48:32;;;;;;;13.27;5.60;;;20.10;99.90;;;20.35;60.67;100959.91;4996656;28;20198;-74
2021/09/09 08:51:00;;;;;;;14.35;5.70;;;20.10;99.90;;;20.42;60.18;100968.28;4996535;28;20216;-73
2021/09/09 08:53:30;;;;;;;12.68;5.63;;;20.20;99.90;;;20.48;59.86;100962.53;4993584;28;20410;-71
2021/09/09 08:55:56;;;;;;;13.43;5.78;;;20.30;99.90;;;20.52;59.69;100970.16;4985245;28;20215;-73
2021/09/09 08:58:23;;;;;;;11.32;5.43;;;20.30;99.90;;;20.58;59.89;100958.22;4994482;28;20184;-72
2021/09/09 09:01:09;;;;;;;13.82;5.22;;;20.40;99.90;;;20.64;59.68;100961.25;4996336;28;20207;-73
2021/09/09 09:03:47;;;;;;;13.40;5.55;;;20.50;99.90;;;20.70;59.46;100973.22;4978628;28;20266;-72
2021/09/09 09:06:40;;;;;;;13.35;5.47;;;20.50;99.90;;;20.76;59.02;100967.47;4974960;28;20316;-71
2021/09/09 09:09:10;;;;;;;12.15;5.28;;;20.60;99.90;;;20.81;58.60;100965.31;4969884;28;20216;-72
2021/09/09 09:11:42;;;;;;;12.98;6.03;;;20.60;99.90;;;20.86;58.92;100965.81;4988659;28;20231;-70
2021/09/09 09:14:11;;;;;;;13.05;5.90;;;20.70;99.90;;;20.91;58.75;100955.66;4974895;28;20609;-70
2021/09/09 09:16:45;;;;;;;11.73;5.82;;;20.80;99.90;;;20.98;59.01;100964.91;4972653;28;20265;-71
2021/09/09 09:19:15;;;;;;;15.95;6.55;;;20.80;99.90;;;21.04;59.11;100964.44;4965462;28;20239;-71
2021/09/09 09:21:47;;;;;;;13.00;5.78;;;20.90;99.90;;;21.08;58.96;100955.25;4967631;28;20208;-71
2021/09/09 09:24:19;;;;;;;11.88;5.50;;;20.90;99.90;;;21.14;59.12;100952.09;4984511;28;20223;-72
2021/09/09 09:27:09;;;;;;;12.18;5.45;;;21.00;99.90;;;21.21;58.78;100952.47;4998892;28;20203;-70
2021/09/09 09:29:37;;;;;;;13.05;5.25;;;21.10;99.90;;;21.25;58.70;100944.09;4977720;28;20254;-71
2021/09/09 09:32:15;;;;;;;13.00;5.38;;;21.20;99.90;;;21.32;58.38;100945.34;4978512;28;20227;-71
2021/09/09 09:34:46;;;;;;;14.75;6.22;;;21.20;99.90;;;21.38;58.63;100944.88;4991644;28;20623;-72
2021/09/09 09:37:21;;;;;;;15.98;5.70;;;21.30;99.90;;;21.46;58.30;100941.59;4991618;28;20196;-70
2021/09/09 09:39:50;;;;;;;13.07;5.95;;;21.40;99.90;;;21.52;58.34;100936.63;4974610;28;20207;-71
2021/09/09 09:42:17;;;;;;;14.60;5.70;;;21.50;99.90;;;21.58;58.41;100946.81;4973351;28;20223;-71
2021/09/09 09:44:47;;;;;;;14.02;5.60;;;21.50;99.90;;;21.63;57.89;100931.31;4974837;28;20241;-70
2021/09/09 09:47:18;;;;;;;12.13;5.55;;;21.60;99.90;;;21.70;57.48;100940.47;4976228;28;20203;-72
2021/09/09 09:49:48;;;;;;;13.00;5.88;;;21.70;99.90;;;21.74;57.21;100933.94;4975109;28;20235;-71
2021/09/09 09:52:23;;;;;;;12.23;6.13;;;21.70;99.90;;;21.80;57.58;100932.66;4975370;28;20219;-71
2021/09/09 09:54:52;;;;;;;11.23;5.40;;;21.80;99.90;;;21.85;57.50;100939.28;4971683;28;20285;-70
2021/09/09 09:57:20;;;;;;;13.52;5.43;;;21.80;99.90;;;21.93;56.83;100936.00;4990949;28;20203;-71
2021/09/09 09:59:47;;;;;;;14.70;4.97;;;21.90;99.90;;;22.00;56.65;100937.22;4974827;28;20195;-72
2021/09/09 10:02:14;;;;;;;10.65;4.95;;;22.00;99.90;;;22.04;56.81;100936.81;4973618;28;20211;-71
2021/09/09 10:04:43;;;;;;;11.57;5.15;;;22.00;99.90;;;22.10;56.43;100933.66;4970042;28;20511;-70
2021/09/09 10:07:13;;;;;;;12.15;5.38;;;22.10;99.90;;;22.16;55.83;100935.81;4976907;28;20261;-68